sensor_id;sensor_type;location;lat;lon;timestamp;P1;durP1;ratioP1;P2;durP2;ratioP2
23155;SDS011;11746;50.876;4.246;2023-04-24T00:00:20;22.98;;;12.85;;
23155;SDS011;11746;50.876;4.246;2023-04-24T00:02:46;24.77;;;13.98;;
23155;SDS011;11746;50.876;4.246;2023-04-24T00:05:15;23.77;;;12.73;;
23155;SDS011;11746;50.876;4.246;2023-04-24T00:07:42;22.40;;;13.18;;
23155;SDS011;11746;50.876;4.246;2023-04-24T00:10:10;23.65;;;13.15;;
23155;SDS011;11746;50.876;4.246;2023-04-24T00:12:37;24.27;;;13.10;;
23155;SDS011;11746;50.876;4.246;2023-04-24T00:15:03;18.25;;;12.52;;
23155;SDS011;11746;50.876;4.246;2023-04-24T00:17:30;23.83;;;14.05;;
23155;SDS011;11746;50.876;4.246;2023-04-24T00:19:56;22.83;;;13.18;;
23155;SDS011;11746;50.876;4.246;2023-04-24T00:22:26;22.88;;;14.07;;
23155;SDS011;11746;50.876;4.246;2023-04-24T00:24:53;20.73;;;13.15;;
23155;SDS011;11746;50.876;4.246;2023-04-24T00:27:19;21.20;;;13.85;;
23155;SDS011;11746;50.876;4.246;2023-04-24T00:29:45;18.05;;;13.23;;
23155;SDS011;11746;50.876;4.246;2023-04-24T00:32:11;19.95;;;13.68;;
23155;SDS011;11746;50.876;4.246;2023-04-24T00:34:37;25.25;;;13.95;;
23155;SDS011;11746;50.876;4.246;2023-04-24T00:37:03;20.05;;;13.57;;
23155;SDS011;11746;50.876;4.246;2023-04-24T00:39:29;27.83;;;14.43;;
23155;SDS011;11746;50.876;4.246;2023-04-24T00:41:55;22.65;;;13.77;;
23155;SDS011;11746;50.876;4.246;2023-04-24T00:44:22;23.00;;;13.75;;
23155;SDS011;11746;50.876;4.246;2023-04-24T00:46:48;23.80;;;13.00;;
23155;SDS011;11746;50.876;4.246;2023-04-24T00:49:22;20.17;;;12.45;;
23155;SDS011;11746;50.876;4.246;2023-04-24T00:51:49;17.13;;;12.80;;
23155;SDS011;11746;50.876;4.246;2023-04-24T00:54:16;22.65;;;13.75;;
23155;SDS011;11746;50.876;4.246;2023-04-24T00:56:42;24.25;;;13.50;;
23155;SDS011;11746;50.876;4.246;2023-04-24T00:59:10;21.15;;;12.75;;
23155;SDS011;11746;50.876;4.246;2023-04-24T01:01:37;22.02;;;12.85;;
23155;SDS011;11746;50.876;4.246;2023-04-24T01:04:07;19.27;;;13.10;;
23155;SDS011;11746;50.876;4.246;2023-04-24T01:06:35;24.38;;;14.25;;
23155;SDS011;11746;50.876;4.246;2023-04-24T01:09:04;27.25;;;15.15;;
23155;SDS011;11746;50.876;4.246;2023-04-24T01:11:30;21.85;;;13.85;;
23155;SDS011;11746;50.876;4.246;2023-04-24T01:13:56;26.67;;;14.20;;
23155;SDS011;11746;50.876;4.246;2023-04-24T01:16:23;24.95;;;14.27;;
23155;SDS011;11746;50.876;4.246;2023-04-24T01:18:50;21.20;;;14.18;;
23155;SDS011;11746;50.876;4.246;2023-04-24T01:21:16;21.30;;;14.10;;
23155;SDS011;11746;50.876;4.246;2023-04-24T01:23:46;23.30;;;15.13;;
23155;SDS011;11746;50.876;4.246;2023-04-24T01:26:13;24.45;;;14.70;;
23155;SDS011;11746;50.876;4.246;2023-04-24T01:28:40;21.52;;;13.93;;
23155;SDS011;11746;50.876;4.246;2023-04-24T01:31:06;22.17;;;13.90;;
23155;SDS011;11746;50.876;4.246;2023-04-24T01:33:32;19.50;;;12.93;;
23155;SDS011;11746;50.876;4.246;2023-04-24T01:35:58;18.10;;;13.45;;
23155;SDS011;11746;50.876;4.246;2023-04-24T01:38:25;19.70;;;12.50;;
23155;SDS011;11746;50.876;4.246;2023-04-24T01:40:51;19.23;;;13.07;;
23155;SDS011;11746;50.876;4.246;2023-04-24T01:43:18;18.90;;;10.90;;
23155;SDS011;11746;50.876;4.246;2023-04-24T01:45:45;15.98;;;10.43;;
23155;SDS011;11746;50.876;4.246;2023-04-24T01:48:11;19.83;;;11.57;;
23155;SDS011;11746;50.876;4.246;2023-04-24T01:50:38;19.33;;;11.35;;
23155;SDS011;11746;50.876;4.246;2023-04-24T01:53:04;15.38;;;10.18;;
23155;SDS011;11746;50.876;4.246;2023-04-24T01:55:30;16.58;;;10.15;;
23155;SDS011;11746;50.876;4.246;2023-04-24T01:57:56;16.00;;;10.70;;
23155;SDS011;11746;50.876;4.246;2023-04-24T02:00:23;15.23;;;10.60;;
23155;SDS011;11746;50.876;4.246;2023-04-24T02:02:50;15.95;;;10.45;;
23155;SDS011;11746;50.876;4.246;2023-04-24T02:05:15;15.82;;;10.18;;
23155;SDS011;11746;50.876;4.246;2023-04-24T02:07:41;17.58;;;10.98;;
23155;SDS011;11746;50.876;4.246;2023-04-24T02:10:07;15.55;;;10.48;;
23155;SDS011;11746;50.876;4.246;2023-04-24T02:12:34;14.90;;;10.38;;
23155;SDS011;11746;50.876;4.246;2023-04-24T02:15:00;16.92;;;10.02;;
23155;SDS011;11746;50.876;4.246;2023-04-24T02:17:26;15.88;;;9.48;;
23155;SDS011;11746;50.876;4.246;2023-04-24T02:19:52;15.13;;;10.10;;
23155;SDS011;11746;50.876;4.246;2023-04-24T02:22:17;18.77;;;9.95;;
23155;SDS011;11746;50.876;4.246;2023-04-24T02:24:43;16.33;;;10.30;;
23155;SDS011;11746;50.876;4.246;2023-04-24T02:27:09;20.30;;;9.70;;
23155;SDS011;11746;50.876;4.246;2023-04-24T02:29:36;15.65;;;10.02;;
23155;SDS011;11746;50.876;4.246;2023-04-24T02:32:02;16.10;;;11.00;;
23155;SDS011;11746;50.876;4.246;2023-04-24T02:34:28;16.95;;;10.50;;
23155;SDS011;11746;50.876;4.246;2023-04-24T02:36:54;16.17;;;10.60;;
23155;SDS011;11746;50.876;4.246;2023-04-24T02:39:20;19.42;;;11.95;;
23155;SDS011;11746;50.876;4.246;2023-04-24T02:41:46;19.30;;;11.77;;
23155;SDS011;11746;50.876;4.246;2023-04-24T02:44:12;19.10;;;10.90;;
23155;SDS011;11746;50.876;4.246;2023-04-24T02:46:37;17.65;;;11.45;;
23155;SDS011;11746;50.876;4.246;2023-04-24T02:49:03;19.70;;;10.85;;
23155;SDS011;11746;50.876;4.246;2023-04-24T02:51:29;17.63;;;10.63;;
23155;SDS011;11746;50.876;4.246;2023-04-24T02:53:56;17.65;;;10.65;;
23155;SDS011;11746;50.876;4.246;2023-04-24T02:56:21;15.30;;;10.95;;
23155;SDS011;11746;50.876;4.246;2023-04-24T02:58:47;19.08;;;11.75;;
23155;SDS011;11746;50.876;4.246;2023-04-24T03:01:13;16.35;;;10.75;;
23155;SDS011;11746;50.876;4.246;2023-04-24T03:03:39;19.00;;;10.50;;
23155;SDS011;11746;50.876;4.246;2023-04-24T03:06:05;15.45;;;10.30;;
23155;SDS011;11746;50.876;4.246;2023-04-24T03:08:33;16.55;;;10.27;;
23155;SDS011;11746;50.876;4.246;2023-04-24T03:10:59;18.40;;;10.52;;
23155;SDS011;11746;50.876;4.246;2023-04-24T03:13:25;14.95;;;10.23;;
23155;SDS011;11746;50.876;4.246;2023-04-24T03:15:51;13.52;;;9.65;;
23155;SDS011;11746;50.876;4.246;2023-04-24T03:18:18;18.73;;;10.88;;
23155;SDS011;11746;50.876;4.246;2023-04-24T03:20:46;16.42;;;10.80;;
23155;SDS011;11746;50.876;4.246;2023-04-24T03:23:13;16.42;;;10.30;;
23155;SDS011;11746;50.876;4.246;2023-04-24T03:25:39;13.38;;;10.30;;
23155;SDS011;11746;50.876;4.246;2023-04-24T03:28:05;13.88;;;10.68;;
23155;SDS011;11746;50.876;4.246;2023-04-24T03:30:31;17.20;;;11.05;;
23155;SDS011;11746;50.876;4.246;2023-04-24T03:32:57;12.77;;;9.95;;
23155;SDS011;11746;50.876;4.246;2023-04-24T03:35:23;14.05;;;8.77;;
23155;SDS011;11746;50.876;4.246;2023-04-24T03:37:49;12.52;;;8.68;;
23155;SDS011;11746;50.876;4.246;2023-04-24T03:40:15;12.95;;;9.25;;
23155;SDS011;11746;50.876;4.246;2023-04-24T03:42:41;14.60;;;8.90;;
23155;SDS011;11746;50.876;4.246;2023-04-24T03:45:07;13.02;;;8.68;;
23155;SDS011;11746;50.876;4.246;2023-04-24T03:47:33;11.93;;;8.55;;
23155;SDS011;11746;50.876;4.246;2023-04-24T03:49:59;11.63;;;8.10;;
23155;SDS011;11746;50.876;4.246;2023-04-24T03:52:25;10.10;;;6.97;;
23155;SDS011;11746;50.876;4.246;2023-04-24T03:54:51;9.98;;;7.45;;
23155;SDS011;11746;50.876;4.246;2023-04-24T03:57:17;9.07;;;7.25;;
23155;SDS011;11746;50.876;4.246;2023-04-24T03:59:43;10.23;;;7.50;;
23155;SDS011;11746;50.876;4.246;2023-04-24T04:02:09;9.45;;;6.90;;
23155;SDS011;11746;50.876;4.246;2023-04-24T04:04:35;10.07;;;7.20;;
23155;SDS011;11746;50.876;4.246;2023-04-24T04:07:00;10.23;;;6.55;;
23155;SDS011;11746;50.876;4.246;2023-04-24T04:09:28;8.27;;;6.40;;
23155;SDS011;11746;50.876;4.246;2023-04-24T04:11:54;9.93;;;5.75;;
23155;SDS011;11746;50.876;4.246;2023-04-24T04:14:21;10.73;;;6.85;;
23155;SDS011;11746;50.876;4.246;2023-04-24T04:16:47;8.38;;;5.70;;
23155;SDS011;11746;50.876;4.246;2023-04-24T04:19:13;8.27;;;6.10;;
23155;SDS011;11746;50.876;4.246;2023-04-24T04:21:39;8.57;;;6.60;;
23155;SDS011;11746;50.876;4.246;2023-04-24T04:24:05;10.10;;;6.22;;
23155;SDS011;11746;50.876;4.246;2023-04-24T04:26:32;9.10;;;6.13;;
23155;SDS011;11746;50.876;4.246;2023-04-24T04:28:58;9.65;;;6.43;;
23155;SDS011;11746;50.876;4.246;2023-04-24T04:31:28;10.80;;;7.15;;
23155;SDS011;11746;50.876;4.246;2023-04-24T04:33:55;12.18;;;6.70;;
23155;SDS011;11746;50.876;4.246;2023-04-24T04:36:21;12.55;;;7.07;;
23155;SDS011;11746;50.876;4.246;2023-04-24T04:38:49;10.77;;;7.63;;
23155;SDS011;11746;50.876;4.246;2023-04-24T04:41:15;13.57;;;8.85;;
23155;SDS011;11746;50.876;4.246;2023-04-24T04:43:42;15.45;;;9.15;;
23155;SDS011;11746;50.876;4.246;2023-04-24T04:46:07;14.57;;;10.07;;
23155;SDS011;11746;50.876;4.246;2023-04-24T04:48:36;16.05;;;10.43;;
23155;SDS011;11746;50.876;4.246;2023-04-24T04:51:03;16.70;;;10.35;;
23155;SDS011;11746;50.876;4.246;2023-04-24T04:53:29;14.20;;;10.13;;
23155;SDS011;11746;50.876;4.246;2023-04-24T04:55:55;16.80;;;11.50;;
23155;SDS011;11746;50.876;4.246;2023-04-24T04:58:21;17.42;;;10.82;;
23155;SDS011;11746;50.876;4.246;2023-04-24T05:00:46;20.15;;;11.48;;
23155;SDS011;11746;50.876;4.246;2023-04-24T05:03:12;20.52;;;12.18;;
23155;SDS011;11746;50.876;4.246;2023-04-24T05:05:38;19.08;;;12.07;;
23155;SDS011;11746;50.876;4.246;2023-04-24T05:08:06;22.05;;;13.00;;
23155;SDS011;11746;50.876;4.246;2023-04-24T05:10:33;22.23;;;11.93;;
23155;SDS011;11746;50.876;4.246;2023-04-24T05:12:59;18.65;;;11.73;;
23155;SDS011;11746;50.876;4.246;2023-04-24T05:15:26;19.63;;;12.43;;
23155;SDS011;11746;50.876;4.246;2023-04-24T05:17:51;17.85;;;10.95;;
23155;SDS011;11746;50.876;4.246;2023-04-24T05:20:17;19.55;;;12.43;;
23155;SDS011;11746;50.876;4.246;2023-04-24T05:22:43;18.90;;;11.55;;
23155;SDS011;11746;50.876;4.246;2023-04-24T05:25:09;22.33;;;11.63;;
23155;SDS011;11746;50.876;4.246;2023-04-24T05:27:35;19.55;;;11.07;;
23155;SDS011;11746;50.876;4.246;2023-04-24T05:30:01;17.25;;;11.77;;
23155;SDS011;11746;50.876;4.246;2023-04-24T05:32:27;17.40;;;11.77;;
23155;SDS011;11746;50.876;4.246;2023-04-24T05:34:53;20.67;;;12.32;;
23155;SDS011;11746;50.876;4.246;2023-04-24T05:37:20;20.48;;;11.77;;
23155;SDS011;11746;50.876;4.246;2023-04-24T05:39:46;18.67;;;12.15;;
23155;SDS011;11746;50.876;4.246;2023-04-24T05:42:12;20.20;;;12.55;;
23155;SDS011;11746;50.876;4.246;2023-04-24T05:44:37;21.50;;;12.20;;
23155;SDS011;11746;50.876;4.246;2023-04-24T05:47:03;17.08;;;11.82;;
23155;SDS011;11746;50.876;4.246;2023-04-24T05:49:29;21.20;;;12.35;;
23155;SDS011;11746;50.876;4.246;2023-04-24T05:51:56;20.58;;;12.10;;
23155;SDS011;11746;50.876;4.246;2023-04-24T05:54:22;18.38;;;11.65;;
23155;SDS011;11746;50.876;4.246;2023-04-24T05:56:48;21.67;;;13.30;;
23155;SDS011;11746;50.876;4.246;2023-04-24T05:59:15;24.77;;;12.82;;
23155;SDS011;11746;50.876;4.246;2023-04-24T06:01:41;17.70;;;11.85;;
23155;SDS011;11746;50.876;4.246;2023-04-24T06:04:07;18.52;;;12.23;;
23155;SDS011;11746;50.876;4.246;2023-04-24T06:06:34;19.52;;;12.40;;
23155;SDS011;11746;50.876;4.246;2023-04-24T06:09:00;17.45;;;11.45;;
23155;SDS011;11746;50.876;4.246;2023-04-24T06:11:27;21.17;;;12.32;;
23155;SDS011;11746;50.876;4.246;2023-04-24T06:13:53;19.75;;;12.40;;
23155;SDS011;11746;50.876;4.246;2023-04-24T06:16:19;18.52;;;11.23;;
23155;SDS011;11746;50.876;4.246;2023-04-24T06:18:45;21.27;;;13.93;;
23155;SDS011;11746;50.876;4.246;2023-04-24T06:21:12;24.33;;;14.18;;
23155;SDS011;11746;50.876;4.246;2023-04-24T06:23:38;21.00;;;14.05;;
23155;SDS011;11746;50.876;4.246;2023-04-24T06:26:04;24.83;;;13.88;;
23155;SDS011;11746;50.876;4.246;2023-04-24T06:28:30;24.00;;;14.45;;
23155;SDS011;11746;50.876;4.246;2023-04-24T06:30:56;24.05;;;14.45;;
23155;SDS011;11746;50.876;4.246;2023-04-24T06:33:21;24.17;;;13.68;;
23155;SDS011;11746;50.876;4.246;2023-04-24T06:35:48;26.13;;;15.77;;
23155;SDS011;11746;50.876;4.246;2023-04-24T06:38:14;25.58;;;15.95;;
23155;SDS011;11746;50.876;4.246;2023-04-24T06:40:41;24.65;;;15.13;;
23155;SDS011;11746;50.876;4.246;2023-04-24T06:43:06;24.30;;;15.65;;
23155;SDS011;11746;50.876;4.246;2023-04-24T06:45:32;28.25;;;16.23;;
23155;SDS011;11746;50.876;4.246;2023-04-24T06:47:58;25.73;;;15.82;;
23155;SDS011;11746;50.876;4.246;2023-04-24T06:50:24;29.65;;;16.65;;
23155;SDS011;11746;50.876;4.246;2023-04-24T06:52:50;26.45;;;15.55;;
23155;SDS011;11746;50.876;4.246;2023-04-24T06:55:24;27.33;;;16.27;;
23155;SDS011;11746;50.876;4.246;2023-04-24T06:57:52;27.77;;;16.10;;
23155;SDS011;11746;50.876;4.246;2023-04-24T07:00:20;29.50;;;17.13;;
23155;SDS011;11746;50.876;4.246;2023-04-24T07:02:48;27.92;;;16.08;;
23155;SDS011;11746;50.876;4.246;2023-04-24T07:05:14;29.38;;;16.00;;
23155;SDS011;11746;50.876;4.246;2023-04-24T07:07:40;24.42;;;15.40;;
23155;SDS011;11746;50.876;4.246;2023-04-24T07:10:06;27.23;;;15.45;;
23155;SDS011;11746;50.876;4.246;2023-04-24T07:12:33;26.33;;;14.57;;
23155;SDS011;11746;50.876;4.246;2023-04-24T07:15:02;28.48;;;14.43;;
23155;SDS011;11746;50.876;4.246;2023-04-24T07:17:28;24.85;;;13.18;;
23155;SDS011;11746;50.876;4.246;2023-04-24T07:19:53;24.02;;;14.05;;
23155;SDS011;11746;50.876;4.246;2023-04-24T07:22:19;23.65;;;12.30;;
23155;SDS011;11746;50.876;4.246;2023-04-24T07:24:47;25.13;;;11.85;;
23155;SDS011;11746;50.876;4.246;2023-04-24T07:27:15;18.67;;;11.88;;
23155;SDS011;11746;50.876;4.246;2023-04-24T07:29:41;19.13;;;10.45;;
23155;SDS011;11746;50.876;4.246;2023-04-24T07:32:07;21.00;;;11.90;;
23155;SDS011;11746;50.876;4.246;2023-04-24T07:34:33;16.90;;;10.85;;
23155;SDS011;11746;50.876;4.246;2023-04-24T07:36:58;21.77;;;11.73;;
23155;SDS011;11746;50.876;4.246;2023-04-24T07:39:24;23.77;;;12.93;;
23155;SDS011;11746;50.876;4.246;2023-04-24T07:41:51;22.20;;;13.20;;
23155;SDS011;11746;50.876;4.246;2023-04-24T07:44:19;22.73;;;13.18;;
23155;SDS011;11746;50.876;4.246;2023-04-24T07:46:45;25.23;;;13.27;;
23155;SDS011;11746;50.876;4.246;2023-04-24T07:49:12;24.67;;;12.90;;
23155;SDS011;11746;50.876;4.246;2023-04-24T07:51:38;22.67;;;12.35;;
23155;SDS011;11746;50.876;4.246;2023-04-24T07:54:04;20.85;;;11.55;;
23155;SDS011;11746;50.876;4.246;2023-04-24T07:56:31;20.48;;;10.57;;
23155;SDS011;11746;50.876;4.246;2023-04-24T07:58:59;19.42;;;10.40;;
23155;SDS011;11746;50.876;4.246;2023-04-24T08:01:28;16.48;;;9.38;;
23155;SDS011;11746;50.876;4.246;2023-04-24T08:03:56;19.75;;;9.77;;
23155;SDS011;11746;50.876;4.246;2023-04-24T08:06:22;16.25;;;8.57;;
23155;SDS011;11746;50.876;4.246;2023-04-24T08:08:48;22.83;;;9.82;;
23155;SDS011;11746;50.876;4.246;2023-04-24T08:11:16;19.02;;;9.15;;
23155;SDS011;11746;50.876;4.246;2023-04-24T08:13:42;15.55;;;7.53;;
23155;SDS011;11746;50.876;4.246;2023-04-24T08:16:10;22.90;;;9.27;;
23155;SDS011;11746;50.876;4.246;2023-04-24T08:18:38;19.30;;;8.40;;
23155;SDS011;11746;50.876;4.246;2023-04-24T08:21:04;17.75;;;8.63;;
23155;SDS011;11746;50.876;4.246;2023-04-24T08:23:32;14.75;;;7.95;;
23155;SDS011;11746;50.876;4.246;2023-04-24T08:25:59;11.20;;;7.45;;
23155;SDS011;11746;50.876;4.246;2023-04-24T08:28:28;16.70;;;7.25;;
23155;SDS011;11746;50.876;4.246;2023-04-24T08:30:56;13.90;;;8.18;;
23155;SDS011;11746;50.876;4.246;2023-04-24T08:33:22;16.67;;;6.75;;
23155;SDS011;11746;50.876;4.246;2023-04-24T08:35:48;15.52;;;7.32;;
23155;SDS011;11746;50.876;4.246;2023-04-24T08:38:17;14.85;;;6.47;;
23155;SDS011;11746;50.876;4.246;2023-04-24T08:40:43;14.55;;;6.38;;
23155;SDS011;11746;50.876;4.246;2023-04-24T08:43:10;12.18;;;5.93;;
23155;SDS011;11746;50.876;4.246;2023-04-24T08:45:39;14.65;;;5.97;;
23155;SDS011;11746;50.876;4.246;2023-04-24T08:48:05;13.52;;;5.68;;
23155;SDS011;11746;50.876;4.246;2023-04-24T08:50:34;13.77;;;6.55;;
23155;SDS011;11746;50.876;4.246;2023-04-24T08:53:00;12.15;;;5.45;;
23155;SDS011;11746;50.876;4.246;2023-04-24T08:55:26;12.98;;;5.75;;
23155;SDS011;11746;50.876;4.246;2023-04-24T08:57:55;8.77;;;4.55;;
23155;SDS011;11746;50.876;4.246;2023-04-24T09:00:23;12.02;;;5.28;;
23155;SDS011;11746;50.876;4.246;2023-04-24T09:02:50;8.45;;;4.38;;
23155;SDS011;11746;50.876;4.246;2023-04-24T09:05:16;11.02;;;4.00;;
23155;SDS011;11746;50.876;4.246;2023-04-24T09:07:45;8.10;;;4.00;;
23155;SDS011;11746;50.876;4.246;2023-04-24T09:10:14;7.22;;;3.65;;
23155;SDS011;11746;50.876;4.246;2023-04-24T09:12:40;12.02;;;4.32;;
23155;SDS011;11746;50.876;4.246;2023-04-24T09:15:07;7.82;;;3.45;;
23155;SDS011;11746;50.876;4.246;2023-04-24T09:17:34;9.02;;;3.70;;
23155;SDS011;11746;50.876;4.246;2023-04-24T09:20:00;11.52;;;4.22;;
23155;SDS011;11746;50.876;4.246;2023-04-24T09:22:28;11.52;;;4.43;;
23155;SDS011;11746;50.876;4.246;2023-04-24T09:25:02;8.20;;;3.78;;
23155;SDS011;11746;50.876;4.246;2023-04-24T09:27:30;10.38;;;3.90;;
23155;SDS011;11746;50.876;4.246;2023-04-24T09:29:57;11.98;;;4.15;;
23155;SDS011;11746;50.876;4.246;2023-04-24T09:32:23;9.60;;;4.07;;
23155;SDS011;11746;50.876;4.246;2023-04-24T09:42:38;15.52;;;4.18;;
23155;SDS011;11746;50.876;4.246;2023-04-24T09:45:11;7.63;;;3.47;;
23155;SDS011;11746;50.876;4.246;2023-04-24T09:47:40;7.82;;;3.38;;
23155;SDS011;11746;50.876;4.246;2023-04-24T09:52:44;8.15;;;3.45;;
23155;SDS011;11746;50.876;4.246;2023-04-24T09:55:13;9.63;;;3.40;;
23155;SDS011;11746;50.876;4.246;2023-04-24T09:58:01;7.93;;;3.78;;
23155;SDS011;11746;50.876;4.246;2023-04-24T10:00:30;7.80;;;3.38;;
23155;SDS011;11746;50.876;4.246;2023-04-24T10:03:00;6.82;;;3.00;;
23155;SDS011;11746;50.876;4.246;2023-04-24T10:05:31;7.45;;;3.45;;
23155;SDS011;11746;50.876;4.246;2023-04-24T10:08:05;8.48;;;3.63;;
23155;SDS011;11746;50.876;4.246;2023-04-24T10:10:41;10.52;;;3.85;;
23155;SDS011;11746;50.876;4.246;2023-04-24T10:13:11;8.07;;;3.83;;
23155;SDS011;11746;50.876;4.246;2023-04-24T10:15:40;7.10;;;3.60;;
23155;SDS011;11746;50.876;4.246;2023-04-24T10:18:07;8.30;;;3.50;;
23155;SDS011;11746;50.876;4.246;2023-04-24T10:20:34;9.23;;;4.10;;
23155;SDS011;11746;50.876;4.246;2023-04-24T10:23:01;9.00;;;3.95;;
23155;SDS011;11746;50.876;4.246;2023-04-24T10:25:27;8.50;;;3.78;;
23155;SDS011;11746;50.876;4.246;2023-04-24T10:27:55;6.60;;;3.50;;
23155;SDS011;11746;50.876;4.246;2023-04-24T10:30:24;7.80;;;4.05;;
23155;SDS011;11746;50.876;4.246;2023-04-24T10:32:54;6.50;;;3.90;;
23155;SDS011;11746;50.876;4.246;2023-04-24T10:35:19;7.45;;;4.07;;
23155;SDS011;11746;50.876;4.246;2023-04-24T10:38:01;10.45;;;4.10;;
23155;SDS011;11746;50.876;4.246;2023-04-24T10:40:32;9.98;;;4.05;;
23155;SDS011;11746;50.876;4.246;2023-04-24T10:43:01;9.95;;;3.90;;
23155;SDS011;11746;50.876;4.246;2023-04-24T10:45:31;13.95;;;4.60;;
23155;SDS011;11746;50.876;4.246;2023-04-24T10:48:08;9.38;;;4.30;;
23155;SDS011;11746;50.876;4.246;2023-04-24T10:50:44;9.57;;;4.53;;
23155;SDS011;11746;50.876;4.246;2023-04-24T10:53:15;8.38;;;4.25;;
23155;SDS011;11746;50.876;4.246;2023-04-24T10:55:46;13.85;;;5.25;;
23155;SDS011;11746;50.876;4.246;2023-04-24T10:58:24;11.85;;;4.60;;
23155;SDS011;11746;50.876;4.246;2023-04-24T11:01:00;8.13;;;4.20;;
23155;SDS011;11746;50.876;4.246;2023-04-24T11:03:27;10.25;;;4.25;;
23155;SDS011;11746;50.876;4.246;2023-04-24T11:08:44;12.55;;;4.82;;
23155;SDS011;11746;50.876;4.246;2023-04-24T11:11:11;8.77;;;4.43;;
23155;SDS011;11746;50.876;4.246;2023-04-24T11:21:25;5.95;;;3.70;;
23155;SDS011;11746;50.876;4.246;2023-04-24T11:29:38;8.17;;;3.90;;
23155;SDS011;11746;50.876;4.246;2023-04-24T11:34:51;6.75;;;4.38;;
23155;SDS011;11746;50.876;4.246;2023-04-24T11:37:19;7.80;;;4.80;;
23155;SDS011;11746;50.876;4.246;2023-04-24T11:39:47;8.40;;;4.95;;
23155;SDS011;11746;50.876;4.246;2023-04-24T11:42:18;8.70;;;5.60;;
23155;SDS011;11746;50.876;4.246;2023-04-24T11:44:48;10.32;;;4.63;;
23155;SDS011;11746;50.876;4.246;2023-04-24T11:47:15;9.15;;;5.28;;
23155;SDS011;11746;50.876;4.246;2023-04-24T11:49:40;7.40;;;4.93;;
23155;SDS011;11746;50.876;4.246;2023-04-24T11:52:06;7.53;;;4.07;;
23155;SDS011;11746;50.876;4.246;2023-04-24T11:54:32;6.75;;;4.13;;
23155;SDS011;11746;50.876;4.246;2023-04-24T11:56:58;7.65;;;3.83;;
23155;SDS011;11746;50.876;4.246;2023-04-24T11:59:28;8.45;;;4.20;;
23155;SDS011;11746;50.876;4.246;2023-04-24T12:01:54;6.82;;;4.45;;
23155;SDS011;11746;50.876;4.246;2023-04-24T12:04:22;5.53;;;3.63;;
23155;SDS011;11746;50.876;4.246;2023-04-24T12:07:00;8.73;;;4.32;;
23155;SDS011;11746;50.876;4.246;2023-04-24T12:09:26;8.45;;;3.90;;
23155;SDS011;11746;50.876;4.246;2023-04-24T12:11:55;6.82;;;3.50;;
23155;SDS011;11746;50.876;4.246;2023-04-24T12:14:27;6.55;;;3.65;;
23155;SDS011;11746;50.876;4.246;2023-04-24T12:16:54;7.95;;;3.45;;
23155;SDS011;11746;50.876;4.246;2023-04-24T12:19:20;5.78;;;3.80;;
23155;SDS011;11746;50.876;4.246;2023-04-24T12:22:01;9.20;;;3.83;;
23155;SDS011;11746;50.876;4.246;2023-04-24T12:24:28;6.20;;;3.70;;
23155;SDS011;11746;50.876;4.246;2023-04-24T12:26:55;4.30;;;3.45;;
23155;SDS011;11746;50.876;4.246;2023-04-24T12:29:22;7.30;;;2.97;;
23155;SDS011;11746;50.876;4.246;2023-04-24T12:31:48;7.15;;;3.28;;
23155;SDS011;11746;50.876;4.246;2023-04-24T12:34:19;7.45;;;3.28;;
23155;SDS011;11746;50.876;4.246;2023-04-24T12:36:48;9.80;;;3.90;;
23155;SDS011;11746;50.876;4.246;2023-04-24T12:39:17;6.97;;;3.42;;
23155;SDS011;11746;50.876;4.246;2023-04-24T12:41:59;7.63;;;3.72;;
23155;SDS011;11746;50.876;4.246;2023-04-24T12:44:32;6.47;;;3.33;;
23155;SDS011;11746;50.876;4.246;2023-04-24T12:46:59;6.70;;;3.40;;
23155;SDS011;11746;50.876;4.246;2023-04-24T12:49:26;7.57;;;2.85;;
23155;SDS011;11746;50.876;4.246;2023-04-24T12:51:52;4.85;;;3.10;;
23155;SDS011;11746;50.876;4.246;2023-04-24T12:54:18;7.07;;;3.40;;
23155;SDS011;11746;50.876;4.246;2023-04-24T12:56:44;6.07;;;3.42;;
23155;SDS011;11746;50.876;4.246;2023-04-24T12:59:10;5.13;;;2.90;;
23155;SDS011;11746;50.876;4.246;2023-04-24T13:01:36;9.48;;;3.17;;
23155;SDS011;11746;50.876;4.246;2023-04-24T13:04:01;5.40;;;2.67;;
23155;SDS011;11746;50.876;4.246;2023-04-24T13:06:27;6.78;;;2.40;;
23155;SDS011;11746;50.876;4.246;2023-04-24T13:08:53;8.25;;;2.95;;
23155;SDS011;11746;50.876;4.246;2023-04-24T13:11:22;8.20;;;2.75;;
23155;SDS011;11746;50.876;4.246;2023-04-24T13:13:48;5.32;;;2.92;;
23155;SDS011;11746;50.876;4.246;2023-04-24T13:16:14;6.07;;;2.13;;
23155;SDS011;11746;50.876;4.246;2023-04-24T13:18:40;5.78;;;2.40;;
23155;SDS011;11746;50.876;4.246;2023-04-24T13:21:06;9.02;;;3.13;;
23155;SDS011;11746;50.876;4.246;2023-04-24T13:23:31;7.80;;;3.00;;
23155;SDS011;11746;50.876;4.246;2023-04-24T13:26:00;4.07;;;2.15;;
23155;SDS011;11746;50.876;4.246;2023-04-24T13:28:26;7.60;;;2.80;;
23155;SDS011;11746;50.876;4.246;2023-04-24T13:30:51;4.00;;;2.20;;
23155;SDS011;11746;50.876;4.246;2023-04-24T13:33:17;5.32;;;2.47;;
23155;SDS011;11746;50.876;4.246;2023-04-24T13:35:45;9.82;;;2.58;;
23155;SDS011;11746;50.876;4.246;2023-04-24T13:38:11;7.65;;;2.42;;
23155;SDS011;11746;50.876;4.246;2023-04-24T13:40:36;11.75;;;2.90;;
23155;SDS011;11746;50.876;4.246;2023-04-24T13:43:02;6.07;;;1.90;;
23155;SDS011;11746;50.876;4.246;2023-04-24T13:45:30;3.42;;;1.83;;
23155;SDS011;11746;50.876;4.246;2023-04-24T13:47:58;4.45;;;1.80;;
23155;SDS011;11746;50.876;4.246;2023-04-24T13:50:24;8.40;;;1.85;;
23155;SDS011;11746;50.876;4.246;2023-04-24T13:52:50;4.45;;;2.00;;
23155;SDS011;11746;50.876;4.246;2023-04-24T13:55:16;2.97;;;1.60;;
23155;SDS011;11746;50.876;4.246;2023-04-24T13:57:41;2.08;;;1.30;;
23155;SDS011;11746;50.876;4.246;2023-04-24T14:00:07;2.50;;;1.48;;
23155;SDS011;11746;50.876;4.246;2023-04-24T14:02:38;10.27;;;1.95;;
23155;SDS011;11746;50.876;4.246;2023-04-24T14:05:06;4.85;;;1.55;;
23155;SDS011;11746;50.876;4.246;2023-04-24T14:07:35;4.32;;;1.50;;
23155;SDS011;11746;50.876;4.246;2023-04-24T14:10:01;3.55;;;1.40;;
23155;SDS011;11746;50.876;4.246;2023-04-24T14:12:27;5.43;;;1.40;;
23155;SDS011;11746;50.876;4.246;2023-04-24T14:14:54;4.55;;;1.40;;
23155;SDS011;11746;50.876;4.246;2023-04-24T14:17:19;5.00;;;2.10;;
23155;SDS011;11746;50.876;4.246;2023-04-24T14:19:45;2.97;;;1.52;;
23155;SDS011;11746;50.876;4.246;2023-04-24T14:22:13;6.05;;;2.00;;
23155;SDS011;11746;50.876;4.246;2023-04-24T14:24:41;5.93;;;1.80;;
23155;SDS011;11746;50.876;4.246;2023-04-24T14:27:09;7.93;;;1.58;;
23155;SDS011;11746;50.876;4.246;2023-04-24T14:29:34;3.35;;;1.45;;
23155;SDS011;11746;50.876;4.246;2023-04-24T14:32:00;4.53;;;1.52;;
23155;SDS011;11746;50.876;4.246;2023-04-24T14:34:26;6.15;;;1.70;;
23155;SDS011;11746;50.876;4.246;2023-04-24T14:36:52;4.30;;;1.88;;
23155;SDS011;11746;50.876;4.246;2023-04-24T14:39:23;5.43;;;4.57;;
23155;SDS011;11746;50.876;4.246;2023-04-24T14:41:49;6.75;;;2.33;;
23155;SDS011;11746;50.876;4.246;2023-04-24T14:44:15;4.35;;;1.73;;
23155;SDS011;11746;50.876;4.246;2023-04-24T14:46:43;4.20;;;1.52;;
23155;SDS011;11746;50.876;4.246;2023-04-24T14:49:11;4.30;;;1.50;;
23155;SDS011;11746;50.876;4.246;2023-04-24T14:51:37;2.97;;;1.25;;
23155;SDS011;11746;50.876;4.246;2023-04-24T14:54:05;5.38;;;1.10;;
23155;SDS011;11746;50.876;4.246;2023-04-24T14:56:33;4.25;;;1.60;;
23155;SDS011;11746;50.876;4.246;2023-04-24T14:59:05;5.05;;;1.30;;
23155;SDS011;11746;50.876;4.246;2023-04-24T15:01:32;4.90;;;1.50;;